sensor_id;sensor_type;location;lat;lon;timestamp;pressure;altitude;pressure_sealevel;temperature;humidity
7990;BME280;4040;42.848;23.034;2024-02-14T00:01:00;94608.53;;;5.50;100.00
7990;BME280;4040;42.848;23.034;2024-02-14T00:06:49;94614.25;;;5.52;100.00
7990;BME280;4040;42.848;23.034;2024-02-14T00:12:38;94616.53;;;5.50;100.00
7990;BME280;4040;42.848;23.034;2024-02-14T00:18:28;94621.81;;;5.43;100.00
7990;BME280;4040;42.848;23.034;2024-02-14T00:24:18;94621.44;;;5.41;100.00
7990;BME280;4040;42.848;23.034;2024-02-14T00:30:07;94627.59;;;5.52;100.00
7990;BME280;4040;42.848;23.034;2024-02-14T00:35:59;94630.28;;;5.52;100.00
7990;BME280;4040;42.848;23.034;2024-02-14T00:41:48;94630.28;;;5.52;100.00
7990;BME280;4040;42.848;23.034;2024-02-14T00:47:39;94630.66;;;5.54;100.00
7990;BME280;4040;42.848;23.034;2024-02-14T00:53:30;94637.91;;;5.50;100.00
7990;BME280;4040;42.848;23.034;2024-02-14T00:59:19;94634.88;;;5.55;100.00
7990;BME280;4040;42.848;23.034;2024-02-14T01:05:09;94634.53;;;5.60;100.00
7990;BME280;4040;42.848;23.034;2024-02-14T01:10:59;94634.84;;;5.52;100.00
7990;BME280;4040;42.848;23.034;2024-02-14T01:16:47;94647.00;;;5.42;100.00
7990;BME280;4040;42.848;23.034;2024-02-14T01:22:36;94650.13;;;5.51;100.00
7990;BME280;4040;42.848;23.034;2024-02-14T01:28:27;94654.69;;;5.54;100.00
7990;BME280;4040;42.848;23.034;2024-02-14T01:34:16;94647.00;;;5.42;100.00
7990;BME280;4040;42.848;23.034;2024-02-14T01:40:06;94643.97;;;5.47;100.00
7990;BME280;4040;42.848;23.034;2024-02-14T01:46:04;94657.31;;;5.44;100.00
7990;BME280;4040;42.848;23.034;2024-02-14T01:51:53;94661.56;;;5.52;100.00
7990;BME280;4040;42.848;23.034;2024-02-14T01:57:43;94677.59;;;5.55;100.00
7990;BME280;4040;42.848;23.034;2024-02-14T02:03:34;94680.25;;;5.48;100.00
7990;BME280;4040;42.848;23.034;2024-02-14T02:09:24;94680.63;;;5.50;100.00
7990;BME280;4040;42.848;23.034;2024-02-14T02:15:13;94669.94;;;5.50;100.00
7990;BME280;4040;42.848;23.034;2024-02-14T02:21:04;94676.06;;;5.54;100.00
7990;BME280;4040;42.848;23.034;2024-02-14T02:26:55;94659.97;;;5.40;100.00
7990;BME280;4040;42.848;23.034;2024-02-14T02:32:44;94666.09;;;5.44;100.00
7990;BME280;4040;42.848;23.034;2024-02-14T02:38:33;94679.03;;;5.42;100.00
7990;BME280;4040;42.848;23.034;2024-02-14T02:44:25;94682.06;;;5.37;100.00
7990;BME280;4040;42.848;23.034;2024-02-14T02:50:14;94680.56;;;5.40;100.00
7990;BME280;4040;42.848;23.034;2024-02-14T02:56:04;94687.06;;;5.42;100.00
7990;BME280;4040;42.848;23.034;2024-02-14T03:01:54;94703.53;;;5.51;100.00
7990;BME280;4040;42.848;23.034;2024-02-14T03:11:47;94711.47;;;5.44;100.00
7990;BME280;4040;42.848;23.034;2024-02-14T03:17:37;94705.75;;;5.42;100.00
7990;BME280;4040;42.848;23.034;2024-02-14T03:23:26;94717.94;;;5.40;100.00
7990;BME280;4040;42.848;23.034;2024-02-14T03:29:15;94722.50;;;5.36;100.00
7990;BME280;4040;42.848;23.034;2024-02-14T03:35:06;94727.06;;;5.32;100.00
7990;BME280;4040;42.848;23.034;2024-02-14T03:40:57;94740.47;;;5.42;100.00
7990;BME280;4040;42.848;23.034;2024-02-14T03:46:45;94747.63;;;5.31;100.00
7990;BME280;4040;42.848;23.034;2024-02-14T03:52:36;94744.50;;;5.22;100.00
7990;BME280;4040;42.848;23.034;2024-02-14T03:58:25;94759.06;;;5.28;100.00
7990;BME280;4040;42.848;23.034;2024-02-14T04:04:14;94762.38;;;5.15;100.00
7990;BME280;4040;42.848;23.034;2024-02-14T04:14:27;94745.72;;;4.88;100.00
7990;BME280;4040;42.848;23.034;2024-02-14T04:20:15;94768.44;;;5.15;100.00
7990;BME280;4040;42.848;23.034;2024-02-14T04:26:04;94771.06;;;5.08;100.00
7990;BME280;4040;42.848;23.034;2024-02-14T04:31:55;94773.38;;;5.13;100.00
7990;BME280;4040;42.848;23.034;2024-02-14T04:37:43;94774.44;;;5.05;100.00
7990;BME280;4040;42.848;23.034;2024-02-14T04:43:33;94768.00;;;5.06;100.00
7990;BME280;4040;42.848;23.034;2024-02-14T04:49:24;94779.41;;;5.03;100.00
7990;BME280;4040;42.848;23.034;2024-02-14T04:55:13;94790.03;;;5.00;100.00
7990;BME280;4040;42.848;23.034;2024-02-14T05:01:02;94789.94;;;4.89;100.00
7990;BME280;4040;42.848;23.034;2024-02-14T05:06:52;94807.38;;;4.83;100.00
7990;BME280;4040;42.848;23.034;2024-02-14T05:17:04;94823.41;;;4.83;100.00
7990;BME280;4040;42.848;23.034;2024-02-14T05:22:54;94842.47;;;4.82;100.00
7990;BME280;4040;42.848;23.034;2024-02-14T05:28:42;94850.31;;;5.01;100.00
7990;BME280;4040;42.848;23.034;2024-02-14T05:34:31;94854.78;;;4.93;100.00
7990;BME280;4040;42.848;23.034;2024-02-14T05:40:22;94806.66;;;4.54;100.00
7990;BME280;4040;42.848;23.034;2024-02-14T05:46:11;94878.47;;;4.98;100.00
7990;BME280;4040;42.848;23.034;2024-02-14T05:52:00;94882.63;;;4.96;100.00
7990;BME280;4040;42.848;23.034;2024-02-14T05:57:51;94892.97;;;4.97;100.00
7990;BME280;4040;42.848;23.034;2024-02-14T06:03:41;94908.25;;;5.00;100.00
7990;BME280;4040;42.848;23.034;2024-02-14T06:09:30;94893.59;;;4.88;100.00
7990;BME280;4040;42.848;23.034;2024-02-14T06:19:42;94921.22;;;5.02;100.00
7990;BME280;4040;42.848;23.034;2024-02-14T06:25:31;94936.47;;;5.01;100.00
7990;BME280;4040;42.848;23.034;2024-02-14T06:31:20;94939.47;;;4.96;100.00
7990;BME280;4040;42.848;23.034;2024-02-14T06:37:10;94939.53;;;5.03;100.00
7990;BME280;4040;42.848;23.034;2024-02-14T06:42:59;94889.28;;;4.50;100.00
7990;BME280;4040;42.848;23.034;2024-02-14T06:48:48;94943.06;;;4.82;100.00
7990;BME280;4040;42.848;23.034;2024-02-14T06:54:39;94962.41;;;5.04;100.00
7990;BME280;4040;42.848;23.034;2024-02-14T07:00:28;94974.63;;;5.05;100.00
7990;BME280;4040;42.848;23.034;2024-02-14T07:06:17;94983.03;;;5.04;100.00
7990;BME280;4040;42.848;23.034;2024-02-14T07:12:08;94985.31;;;5.05;100.00
7990;BME280;4040;42.848;23.034;2024-02-14T07:22:18;95001.59;;;5.26;100.00
7990;BME280;4040;42.848;23.034;2024-02-14T07:28:08;94991.75;;;5.30;100.00
7990;BME280;4040;42.848;23.034;2024-02-14T07:33:57;95008.50;;;5.27;100.00
7990;BME280;4040;42.848;23.034;2024-02-14T07:39:46;95015.00;;;5.30;100.00
7990;BME280;4040;42.848;23.034;2024-02-14T07:45:38;95015.53;;;5.42;100.00
7990;BME280;4040;42.848;23.034;2024-02-14T07:51:27;95000.13;;;5.29;100.00
7990;BME280;4040;42.848;23.034;2024-02-14T07:57:17;95021.69;;;5.46;100.00
7990;BME280;4040;42.848;23.034;2024-02-14T08:03:08;95031.34;;;5.54;100.00
7990;BME280;4040;42.848;23.034;2024-02-14T08:08:56;95035.13;;;5.79;100.00
7990;BME280;4040;42.848;23.034;2024-02-14T08:14:50;95035.25;;;5.93;100.00
7990;BME280;4040;42.848;23.034;2024-02-14T08:25:02;95031.19;;;6.06;100.00
7990;BME280;4040;42.848;23.034;2024-02-14T08:30:51;95006.59;;;5.90;100.00
7990;BME280;4040;42.848;23.034;2024-02-14T08:36:40;95010.81;;;5.91;100.00
7990;BME280;4040;42.848;23.034;2024-02-14T08:42:30;95045.38;;;6.10;100.00
7990;BME280;4040;42.848;23.034;2024-02-14T08:48:19;95043.91;;;6.16;100.00
7990;BME280;4040;42.848;23.034;2024-02-14T08:54:08;95052.00;;;6.23;100.00
7990;BME280;4040;42.848;23.034;2024-02-14T08:59:59;95060.81;;;6.27;100.00
7990;BME280;4040;42.848;23.034;2024-02-14T09:05:49;95062.13;;;6.07;100.00
7990;BME280;4040;42.848;23.034;2024-02-14T09:11:40;95062.22;;;6.14;100.00
7990;BME280;4040;42.848;23.034;2024-02-14T09:17:30;95070.50;;;6.39;100.00
7990;BME280;4040;42.848;23.034;2024-02-14T09:27:41;95086.44;;;6.68;100.00
7990;BME280;4040;42.848;23.034;2024-02-14T09:33:33;95086.34;;;6.61;100.00
7990;BME280;4040;42.848;23.034;2024-02-14T09:39:22;95093.19;;;6.55;100.00
7990;BME280;4040;42.848;23.034;2024-02-14T09:45:11;95079.13;;;6.25;100.00
7990;BME280;4040;42.848;23.034;2024-02-14T09:51:02;95087.88;;;6.62;100.00
7990;BME280;4040;42.848;23.034;2024-02-14T09:56:52;95092.47;;;7.05;100.00
7990;BME280;4040;42.848;23.034;2024-02-14T10:02:42;95086.31;;;7.62;100.00
7990;BME280;4040;42.848;23.034;2024-02-14T10:08:32;95081.75;;;7.62;100.00
7990;BME280;4040;42.848;23.034;2024-02-14T10:14:23;95074.84;;;7.65;100.00
7990;BME280;4040;42.848;23.034;2024-02-14T10:20:17;95060.63;;;9.06;100.00
7990;BME280;4040;42.848;23.034;2024-02-14T10:30:29;95046.81;;;9.04;93.20
7990;BME280;4040;42.848;23.034;2024-02-14T10:36:19;95046.84;;;8.83;86.29
7990;BME280;4040;42.848;23.034;2024-02-14T10:42:08;95050.50;;;7.98;97.64
7990;BME280;4040;42.848;23.034;2024-02-14T10:48:00;95055.50;;;7.25;100.00
7990;BME280;4040;42.848;23.034;2024-02-14T10:53:50;95050.28;;;6.88;100.00
7990;BME280;4040;42.848;23.034;2024-02-14T10:59:43;95066.19;;;6.71;100.00
7990;BME280;4040;42.848;23.034;2024-02-14T11:05:42;95064.44;;;6.45;100.00
7990;BME280;4040;42.848;23.034;2024-02-14T11:11:33;95067.03;;;6.38;100.00
7990;BME280;4040;42.848;23.034;2024-02-14T11:17:24;95077.50;;;6.54;100.00
7990;BME280;4040;42.848;23.034;2024-02-14T11:23:21;95068.91;;;6.74;100.00
7990;BME280;4040;42.848;23.034;2024-02-14T11:33:32;95067.97;;;7.03;100.00
7990;BME280;4040;42.848;23.034;2024-02-14T11:39:23;95054.56;;;7.03;100.00
7990;BME280;4040;42.848;23.034;2024-02-14T11:45:12;95065.28;;;7.03;100.00
7990;BME280;4040;42.848;23.034;2024-02-14T11:51:01;94982.50;;;6.27;100.00
7990;BME280;4040;42.848;23.034;2024-02-14T11:56:51;95022.13;;;6.61;100.00
7990;BME280;4040;42.848;23.034;2024-02-14T12:02:41;95031.41;;;6.71;100.00
7990;BME280;4040;42.848;23.034;2024-02-14T12:08:30;95042.97;;;6.82;100.00
7990;BME280;4040;42.848;23.034;2024-02-14T12:14:22;95055.50;;;7.25;100.00
7990;BME280;4040;42.848;23.034;2024-02-14T12:20:13;95050.88;;;7.22;100.00
7990;BME280;4040;42.848;23.034;2024-02-14T12:26:03;95053.88;;;7.13;100.00
7990;BME280;4040;42.848;23.034;2024-02-14T12:36:16;95043.09;;;6.99;100.00
7990;BME280;4040;42.848;23.034;2024-02-14T12:42:05;95040.09;;;7.11;100.00
7990;BME280;4040;42.848;23.034;2024-02-14T12:47:54;95034.88;;;7.32;100.00
7990;BME280;4040;42.848;23.034;2024-02-14T12:53:44;95037.91;;;7.27;97.72
7990;BME280;4040;42.848;23.034;2024-02-14T12:59:33;95031.66;;;7.09;94.04
7990;BME280;4040;42.848;23.034;2024-02-14T13:05:22;95043.59;;;7.19;97.21
7990;BME280;4040;42.848;23.034;2024-02-14T13:11:14;95045.25;;;7.37;97.58
7990;BME280;4040;42.848;23.034;2024-02-14T13:17:04;95031.84;;;7.44;93.22
7990;BME280;4040;42.848;23.034;2024-02-14T13:22:53;95039.47;;;7.35;84.15
7990;BME280;4040;42.848;23.034;2024-02-14T13:28:44;95020.31;;;7.33;82.22
7990;BME280;4040;42.848;23.034;2024-02-14T13:38:54;95036.78;;;7.35;85.23
7990;BME280;4040;42.848;23.034;2024-02-14T13:44:45;95030.25;;;7.29;84.00
7990;BME280;4040;42.848;23.034;2024-02-14T13:50:34;95042.47;;;7.23;82.23
7990;BME280;4040;42.848;23.034;2024-02-14T13:56:23;95011.72;;;7.03;85.56
7990;BME280;4040;42.848;23.034;2024-02-14T14:02:13;95046.72;;;7.31;85.37
7990;BME280;4040;42.848;23.034;2024-02-14T14:08:02;94999.47;;;7.02;88.53
7990;BME280;4040;42.848;23.034;2024-02-14T14:13:51;95065.50;;;7.35;88.83
7990;BME280;4040;42.848;23.034;2024-02-14T14:19:42;95061.34;;;7.44;89.08
7990;BME280;4040;42.848;23.034;2024-02-14T14:25:30;95052.88;;;7.38;88.64
7990;BME280;4040;42.848;23.034;2024-02-14T14:31:20;95057.91;;;7.43;89.15
7990;BME280;4040;42.848;23.034;2024-02-14T14:41:32;95088.19;;;7.51;90.42
7990;BME280;4040;42.848;23.034;2024-02-14T14:47:21;95091.44;;;7.20;92.97
7990;BME280;4040;42.848;23.034;2024-02-14T14:53:10;95060.69;;;7.00;97.46
7990;BME280;4040;42.848;23.034;2024-02-14T14:59:01;95095.28;;;7.23;97.16
7990;BME280;4040;42.848;23.034;2024-02-14T15:04:50;95108.66;;;7.19;96.27
7990;BME280;4040;42.848;23.034;2024-02-14T15:10:39;95113.47;;;7.03;92.55
7990;BME280;4040;42.848;23.034;2024-02-14T15:16:29;95092.25;;;6.77;95.51
7990;BME280;4040;42.848;23.034;2024-02-14T15:22:18;95127.41;;;6.76;99.03
7990;BME280;4040;42.848;23.034;2024-02-14T15:28:08;95131.44;;;6.59;99.95
7990;BME280;4040;42.848;23.034;2024-02-14T15:34:02;95145.19;;;6.54;100.00
7990;BME280;4040;42.848;23.034;2024-02-14T15:44:13;95157.00;;;6.20;100.00
7990;BME280;4040;42.848;23.034;2024-02-14T15:50:05;95166.09;;;6.12;100.00
7990;BME280;4040;42.848;23.034;2024-02-14T15:55:55;95170.72;;;6.15;100.00
7990;BME280;4040;42.848;23.034;2024-02-14T16:01:44;95177.47;;;6.06;100.00
7990;BME280;4040;42.848;23.034;2024-02-14T16:07:35;95167.81;;;5.98;100.00
7990;BME280;4040;42.848;23.034;2024-02-14T16:13:24;95167.38;;;5.92;100.00
7990;BME280;4040;42.848;23.034;2024-02-14T16:19:13;95204.94;;;6.03;99.33
7990;BME280;4040;42.848;23.034;2024-02-14T16:25:04;95211.78;;;6.00;99.27
7990;BME280;4040;42.848;23.034;2024-02-14T16:30:53;95200.88;;;5.86;99.14
7990;BME280;4040;42.848;23.034;2024-02-14T16:36:42;95214.66;;;5.88;100.00
7990;BME280;4040;42.848;23.034;2024-02-14T16:46:55;95221.88;;;5.84;100.00
7990;BME280;4040;42.848;23.034;2024-02-14T16:52:44;95229.06;;;5.80;100.00
7990;BME280;4040;42.848;23.034;2024-02-14T16:58:33;95211.97;;;5.62;100.00
7990;BME280;4040;42.848;23.034;2024-02-14T17:04:24;95238.06;;;5.72;100.00
7990;BME280;4040;42.848;23.034;2024-02-14T17:10:13;95236.53;;;5.71;100.00
7990;BME280;4040;42.848;23.034;2024-02-14T17:16:01;95253.34;;;5.72;100.00
7990;BME280;4040;42.848;23.034;2024-02-14T17:21:53;95260.78;;;5.59;100.00
7990;BME280;4040;42.848;23.034;2024-02-14T17:27:42;95260.53;;;5.45;100.00
7990;BME280;4040;42.848;23.034;2024-02-14T17:33:31;95259.50;;;5.27;100.00
7990;BME280;4040;42.848;23.034;2024-02-14T17:39:21;95263.34;;;5.30;100.00
7990;BME280;4040;42.848;23.034;2024-02-14T17:49:32;95259.25;;;5.13;100.00
7990;BME280;4040;42.848;23.034;2024-02-14T17:55:22;95265.97;;;5.04;100.00
7990;BME280;4040;42.848;23.034;2024-02-14T18:01:12;95216.38;;;4.62;100.00
7990;BME280;4040;42.848;23.034;2024-02-14T18:07:01;95261.13;;;4.90;100.00
7990;BME280;4040;42.848;23.034;2024-02-14T18:12:52;95264.88;;;4.67;100.00
7990;BME280;4040;42.848;23.034;2024-02-14T18:18:41;95216.41;;;4.24;100.00
7990;BME280;4040;42.848;23.034;2024-02-14T18:24:33;95246.84;;;4.42;100.00
7990;BME280;4040;42.848;23.034;2024-02-14T18:30:25;95259.91;;;4.47;100.00
7990;BME280;4040;42.848;23.034;2024-02-14T18:36:14;95267.75;;;4.40;100.00
7990;BME280;4040;42.848;23.034;2024-02-14T18:42:05;95275.59;;;4.33;100.00
7990;BME280;4040;42.848;23.034;2024-02-14T18:52:17;95272.09;;;4.29;100.00
7990;BME280;4040;42.848;23.034;2024-02-14T18:58:06;95295.69;;;4.27;100.00
7990;BME280;4040;42.848;23.034;2024-02-14T19:03:56;95289.19;;;4.09;100.00
7990;BME280;4040;42.848;23.034;2024-02-14T19:09:49;95276.34;;;3.80;100.00
7990;BME280;4040;42.848;23.034;2024-02-14T19:15:38;95243.59;;;3.45;100.00
7990;BME280;4040;42.848;23.034;2024-02-14T19:21:27;95302.25;;;3.64;100.00
7990;BME280;4040;42.848;23.034;2024-02-14T19:27:17;95295.03;;;3.64;100.00
7990;BME280;4040;42.848;23.034;2024-02-14T19:33:06;95292.34;;;3.80;100.00
7990;BME280;4040;42.848;23.034;2024-02-14T19:38:55;95288.81;;;3.91;100.00
7990;BME280;4040;42.848;23.034;2024-02-14T19:44:46;95259.38;;;3.53;100.00
7990;BME280;4040;42.848;23.034;2024-02-14T19:54:57;95283.13;;;3.43;100.00
7990;BME280;4040;42.848;23.034;2024-02-14T20:00:47;95285.34;;;3.25;100.00
7990;BME280;4040;42.848;23.034;2024-02-14T20:06:37;95309.75;;;3.43;100.00
7990;BME280;4040;42.848;23.034;2024-02-14T20:12:26;95315.06;;;3.43;100.00
7990;BME280;4040;42.848;23.034;2024-02-14T20:18:18;95329.66;;;3.49;100.00
7990;BME280;4040;42.848;23.034;2024-02-14T20:24:07;95322.63;;;3.41;100.00
7990;BME280;4040;42.848;23.034;2024-02-14T20:29:57;95315.88;;;3.16;100.00
7990;BME280;4040;42.848;23.034;2024-02-14T20:35:47;95325.81;;;3.46;100.00
7990;BME280;4040;42.848;23.034;2024-02-14T20:41:36;95324.00;;;3.66;100.00
7990;BME280;4040;42.848;23.034;2024-02-14T20:47:36;95294.59;;;3.47;100.00
7990;BME280;4040;42.848;23.034;2024-02-14T20:57:49;95305.16;;;3.43;100.00
7990;BME280;4040;42.848;23.034;2024-02-14T21:03:38;95323.06;;;3.43;100.00
7990;BME280;4040;42.848;23.034;2024-02-14T21:09:27;95322.16;;;3.39;100.00
7990;BME280;4040;42.848;23.034;2024-02-14T21:15:21;95313.16;;;3.28;100.00
7990;BME280;4040;42.848;23.034;2024-02-14T21:21:10;95327.56;;;3.27;100.00
7990;BME280;4040;42.848;23.034;2024-02-14T21:26:59;95305.09;;;3.09;100.00
7990;BME280;4040;42.848;23.034;2024-02-14T21:32:50;95314.84;;;3.05;100.00
7990;BME280;4040;42.848;23.034;2024-02-14T21:38:39;95324.28;;;2.87;100.00
7990;BME280;4040;42.848;23.034;2024-02-14T21:44:28;95293.03;;;2.56;100.00
7990;BME280;4040;42.848;23.034;2024-02-14T21:50:19;95303.06;;;2.63;100.00
7990;BME280;4040;42.848;23.034;2024-02-14T22:00:30;95334.03;;;2.83;100.00
7990;BME280;4040;42.848;23.034;2024-02-14T22:06:21;95287.19;;;2.51;100.00
7990;BME280;4040;42.848;23.034;2024-02-14T22:12:10;95303.75;;;2.60;100.00
7990;BME280;4040;42.848;23.034;2024-02-14T22:17:59;95324.34;;;2.63;100.00
7990;BME280;4040;42.848;23.034;2024-02-14T22:23:50;95309.56;;;2.50;100.00
7990;BME280;4040;42.848;23.034;2024-02-14T22:29:39;95335.47;;;2.53;100.00
7990;BME280;4040;42.848;23.034;2024-02-14T22:35:28;95343.69;;;2.48;100.00
7990;BME280;4040;42.848;23.034;2024-02-14T22:41:19;95338.84;;;2.38;100.00
7990;BME280;4040;42.848;23.034;2024-02-14T22:47:09;95335.94;;;2.43;100.00
7990;BME280;4040;42.848;23.034;2024-02-14T22:52:58;95324.81;;;2.26;100.00
7990;BME280;4040;42.848;23.034;2024-02-14T23:08:33;95303.75;;;1.33;100.00
7990;BME280;4040;42.848;23.034;2024-02-14T23:14:23;95334.06;;;1.56;100.00
7990;BME280;4040;42.848;23.034;2024-02-14T23:20:12;95346.44;;;1.64;100.00
7990;BME280;4040;42.848;23.034;2024-02-14T23:26:03;95336.59;;;1.77;100.00
7990;BME280;4040;42.848;23.034;2024-02-14T23:31:52;95317.25;;;1.52;100.00
7990;BME280;4040;42.848;23.034;2024-02-14T23:37:41;95341.22;;;1.44;100.00
7990;BME280;4040;42.848;23.034;2024-02-14T23:43:32;95324.63;;;1.35;100.00
7990;BME280;4040;42.848;23.034;2024-02-14T23:49:21;95344.78;;;1.60;100.00
7990;BME280;4040;42.848;23.034;2024-02-14T23:55:10;95327.50;;;1.42;100.00
